Time;durP1;ratioP1;P1;durP2;ratioP2;P2;SDS_P1;SDS_P2;PMS_P1;PMS_P2;Temp;Humidity;BMP_temperature;BMP_pressure;BME280_temperature;BME280_humidity;BME280_pressure;Samples;Min_cycle;Max_cycle;Signal;HPM_P1;HPM_P2
2022/09/06 00:00:15;;;;;;;5.65;3.35;;;;;;;11.96;83.66;96264.89;1733054;83;21022;-76
2022/09/06 00:02:44;;;;;;;;;;;;;;;11.99;83.24;96258.69;1735728;82;21037;-76
2022/09/06 00:05:12;;;;;;;5.55;2.90;;;;;;;11.97;83.19;96256.08;1705603;84;20129;-76
2022/09/06 00:07:39;;;;;;;5.97;2.75;;;;;;;11.89;83.18;96264.12;1732995;83;20994;-76
2022/09/06 00:10:08;;;;;;;3.35;2.77;;;;;;;11.75;82.25;96272.63;1732668;82;21026;-76
2022/09/06 00:12:34;;;;;;;3.77;3.33;;;;;;;11.65;82.96;96269.22;1733729;83;21500;-76
2022/09/06 00:15:03;;;;;;;9.43;3.60;;;;;;;11.74;83.53;96271.31;1733049;82;21519;-76
2022/09/06 00:17:31;;;;;;;7.80;3.22;;;;;;;11.73;83.38;96261.19;1732974;83;21025;-76
2022/09/06 00:19:58;;;;;;;4.22;3.70;;;;;;;11.72;83.19;96262.52;1733091;83;21500;-76
2022/09/06 00:22:25;;;;;;;6.08;3.40;;;;;;;11.72;83.19;96258.55;1732982;82;21042;-76
2022/09/06 00:24:52;;;;;;;5.40;3.17;;;;;;;11.72;83.27;96251.52;1732862;82;20999;-76
2022/09/06 00:27:18;;;;;;;6.80;3.45;;;;;;;11.67;82.84;96251.58;1732755;82;21089;-76
2022/09/06 00:29:45;;;;;;;3.65;2.98;;;;;;;11.65;83.26;96252.03;1732924;82;21085;-76
2022/09/06 00:32:12;;;;;;;4.67;3.30;;;;;;;11.65;83.39;96244.11;1732819;82;21094;-76
2022/09/06 00:34:39;;;;;;;3.20;2.70;;;;;;;11.46;82.95;96251.40;1733131;83;21492;-75
2022/09/06 00:37:05;;;;;;;4.70;3.52;;;;;;;11.29;83.05;96252.03;1732979;83;21480;-76
2022/09/06 00:39:32;;;;;;;3.75;3.35;;;;;;;11.20;83.90;96252.11;1733031;83;21476;-76
2022/09/06 00:41:58;;;;;;;3.70;3.30;;;;;;;11.16;85.08;96242.46;1732905;83;21014;-76
2022/09/06 00:44:25;;;;;;;5.03;3.30;;;;;;;11.17;84.82;96247.74;1733136;82;21037;-76
2022/09/06 00:46:54;;;;;;;3.77;3.35;;;;;;;11.19;84.48;96244.64;1732655;83;21098;-76
2022/09/06 00:49:25;;;;;;;3.47;3.17;;;;;;;11.17;84.23;96246.42;1732976;83;21101;-76
2022/09/06 00:52:06;;;;;;;3.60;3.30;;;;;;;11.21;84.25;96251.21;1733053;83;21014;-76
2022/09/06 00:54:33;;;;;;;4.87;3.33;;;;;;;11.23;84.58;96254.27;1733103;82;21046;-76
2022/09/06 00:57:01;;;;;;;3.15;2.85;;;;;;;11.23;84.17;96251.63;1732807;82;21002;-76
2022/09/06 00:59:32;;;;;;;9.98;3.15;;;;;;;11.10;83.56;96255.30;1733163;83;20982;-76
2022/09/06 01:01:59;;;;;;;3.50;2.98;;;;;;;10.94;83.60;96259.86;1714650;84;21489;-76
2022/09/06 01:04:26;;;;;;;4.75;2.83;;;;;;;10.85;83.90;96255.97;1714768;83;21021;-76
2022/09/06 01:07:25;;;;;;;4.53;2.80;;;;;;;10.85;83.97;96255.97;1733095;83;21125;-76
2022/09/06 01:10:07;;;;;;;4.20;3.00;;;;;;;10.85;84.14;96259.06;1733213;83;21502;-76
2022/09/06 01:12:39;;;;;;;5.42;3.20;;;;;;;10.94;84.56;96259.86;1732204;83;21010;-76
2022/09/06 01:15:14;;;;;;;4.55;3.02;;;;;;;11.07;84.50;96257.97;1733130;83;20995;-76
2022/09/06 01:18:07;;;;;;;3.67;3.12;;;;;;;11.07;84.91;96256.66;1733493;82;21034;-75
2022/09/06 01:20:44;;;;;;;9.33;4.08;;;;;;;11.07;85.18;96257.10;1733444;83;21057;-76
2022/09/06 01:23:35;;;;;;;12.85;3.47;;;;;;;11.09;84.77;96250.91;1733111;82;21008;-75
2022/09/06 01:26:32;;;;;;;10.68;3.67;;;;;;;11.10;84.56;96248.69;1732946;83;21018;-75
2022/09/06 01:29:00;;;;;;;4.37;3.60;;;;;;;11.08;84.44;96244.31;1705310;83;21078;-75
2022/09/06 01:31:47;;;;;;;4.47;3.80;;;;;;;11.14;84.27;96247.78;1733666;83;20983;-75
2022/09/06 01:34:21;;;;;;;5.55;3.65;;;;;;;11.14;84.23;96252.19;1730267;83;21472;-76
2022/09/06 01:36:55;;;;;;;6.53;3.17;;;;;;;11.02;84.14;96256.69;1761590;81;21010;-75
2022/09/06 01:39:29;;;;;;;4.75;2.87;;;;;;;10.97;85.65;96254.54;1733670;83;21002;-75
2022/09/06 01:42:00;;;;;;;6.45;3.08;;;;;;;10.96;85.25;96256.77;1761733;81;21006;-75
2022/09/06 01:44:29;;;;;;;3.42;2.62;;;;;;;10.96;84.69;96250.58;1733732;83;21043;-75
2022/09/06 01:47:04;;;;;;;3.25;2.90;;;;;;;10.86;83.78;96249.82;1733886;83;21022;-75
2022/09/06 01:50:12;;;;;;;3.65;3.35;;;;;;;10.81;84.06;96243.26;1703000;84;21058;-76
2022/09/06 01:53:13;;;;;;;5.83;3.40;;;;;;;10.74;84.37;96246.83;1703024;84;21023;-75
2022/09/06 01:56:11;;;;;;;4.78;2.92;;;;;;;10.74;85.45;96253.44;1720178;83;21066;-76
2022/09/06 01:59:08;;;;;;;4.12;3.72;;;;;;;10.87;85.52;96253.33;1733369;83;21488;-75
2022/09/06 02:01:46;;;;;;;11.10;4.30;;;;;;;10.83;84.66;96253.78;1760782;81;21136;-76
2022/09/06 02:04:30;;;;;;;6.33;3.92;;;;;;;10.82;84.65;96252.05;1761344;81;21018;-75
2022/09/06 02:07:01;;;;;;;7.70;2.85;;;;;;;10.87;85.10;96255.97;1761915;81;21013;-75
2022/09/06 02:09:33;;;;;;;4.72;3.00;;;;;;;10.89;84.72;96252.88;1733637;82;20998;-76
2022/09/06 02:12:03;;;;;;;5.80;2.77;;;;;;;10.92;85.05;96256.34;1733940;83;21002;-75
2022/09/06 02:14:40;;;;;;;6.90;3.87;;;;;;;10.91;84.73;96251.97;1708974;83;20986;-75
2022/09/06 02:17:11;;;;;;;4.67;3.67;;;;;;;10.83;84.01;96252.46;1732251;83;21054;-75
2022/09/06 02:19:44;;;;;;;4.30;2.70;;;;;;;10.82;84.24;96255.55;1733564;83;21077;-75
2022/09/06 02:22:14;;;;;;;4.85;3.15;;;;;;;10.82;84.61;96250.72;1761909;81;20994;-75
2022/09/06 02:24:43;;;;;;;8.10;3.00;;;;;;;10.91;84.95;96254.61;1733821;83;21548;-75
2022/09/06 02:27:11;;;;;;;12.00;3.98;;;;;;;11.01;85.04;96251.41;1761989;81;21447;-75
2022/09/06 02:29:38;;;;;;;4.53;3.58;;;;;;;11.10;84.35;96253.10;1763508;80;21113;-75
2022/09/06 02:32:21;;;;;;;8.10;3.50;;;;;;;11.10;84.05;96256.61;1763864;81;20957;-75
2022/09/06 02:34:52;;;;;;;4.40;3.50;;;;;;;11.08;84.62;96250.46;1727697;83;20990;-75
2022/09/06 02:37:19;;;;;;;5.30;3.40;;;;;;;11.10;84.50;96251.33;1727574;83;21002;-75
2022/09/06 02:39:45;;;;;;;3.42;3.10;;;;;;;11.08;84.28;96249.14;1727373;83;21547;-75
2022/09/06 02:42:16;;;;;;;4.33;2.90;;;;;;;11.14;84.83;96247.78;1727630;83;20970;-75
2022/09/06 02:44:43;;;;;;;4.00;3.70;;;;;;;11.12;85.15;96252.20;1727407;83;21022;-75
2022/09/06 02:47:09;;;;;;;3.77;2.95;;;;;;;11.11;84.97;96245.59;1727611;83;21046;-75
2022/09/06 02:49:36;;;;;;;6.67;3.27;;;;;;;11.04;85.63;96243.03;1727157;83;21114;-75
2022/09/06 02:52:03;;;;;;;3.95;3.15;;;;;;;11.02;85.87;96247.45;1727170;83;20993;-75
2022/09/06 02:54:31;;;;;;;4.30;3.05;;;;;;;10.97;85.35;96244.43;1727310;83;21122;-75
2022/09/06 02:56:58;;;;;;;4.80;2.87;;;;;;;10.94;85.66;96240.50;1727593;83;21014;-75
2022/09/06 02:59:24;;;;;;;5.95;3.20;;;;;;;10.88;85.11;96247.14;1727064;83;21037;-74
2022/09/06 03:01:51;;;;;;;9.88;3.90;;;;;;;10.80;85.14;96256.00;1727737;83;20991;-75
2022/09/06 03:04:17;;;;;;;5.58;3.90;;;;;;;10.78;85.72;96256.91;1727362;83;20990;-75
2022/09/06 03:06:44;;;;;;;3.95;3.50;;;;;;;10.77;85.51;96254.72;1727344;83;21006;-75
2022/09/06 03:09:11;;;;;;;4.70;3.62;;;;;;;10.74;85.59;96252.11;1727404;83;21058;-75
2022/09/06 03:11:38;;;;;;;5.53;3.98;;;;;;;10.68;85.75;96259.20;1727681;83;20979;-75
2022/09/06 03:14:05;;;;;;;13.72;3.83;;;;;;;10.64;85.59;96254.41;1727080;83;21042;-75
2022/09/06 03:16:32;;;;;;;4.05;2.98;;;;;;;10.64;85.62;96256.17;1727530;83;20998;-75
2022/09/06 03:18:58;;;;;;;3.15;2.85;;;;;;;10.65;85.71;96255.27;1727500;83;21025;-75
2022/09/06 03:21:25;;;;;;;4.28;2.70;;;;;;;10.66;85.85;96253.95;1727573;83;21014;-75
2022/09/06 03:23:53;;;;;;;2.75;2.55;;;;;;;10.74;85.84;96257.84;1727343;83;21018;-74
2022/09/06 03:26:20;;;;;;;2.83;2.62;;;;;;;10.82;85.89;96259.52;1727493;83;21011;-75
2022/09/06 03:28:46;;;;;;;4.05;3.15;;;;;;;10.86;85.57;96250.23;1726235;82;21018;-74
2022/09/06 03:31:13;;;;;;;3.27;2.98;;;;;;;10.81;85.31;96255.59;1726437;82;21033;-74
2022/09/06 03:33:40;;;;;;;6.17;3.17;;;;;;;10.74;84.86;96254.75;1732646;83;21029;-75
2022/09/06 03:36:07;;;;;;;6.35;3.35;;;;;;;10.73;85.50;96256.94;1732814;83;21002;-75
2022/09/06 03:38:34;;;;;;;3.83;3.30;;;;;;;10.83;85.89;96261.70;1732758;82;21508;-74
2022/09/06 03:41:01;;;;;;;6.75;3.30;;;;;;;10.83;85.13;96259.96;1733105;83;21007;-74
2022/09/06 03:43:27;;;;;;;6.47;3.12;;;;;;;10.86;85.47;96260.38;1733052;82;21054;-75
2022/09/06 03:45:56;;;;;;;4.17;3.47;;;;;;;10.85;84.60;96259.06;1733083;83;21003;-75
2022/09/06 03:48:27;;;;;;;3.20;2.90;;;;;;;10.82;85.15;96263.92;1732869;83;21014;-74
2022/09/06 03:50:57;;;;;;;5.35;2.80;;;;;;;10.89;85.56;96264.30;1733169;83;21082;-75
2022/09/06 03:53:25;;;;;;;11.80;3.50;;;;;;;10.98;86.22;96260.69;1732972;83;21519;-74
2022/09/06 03:55:54;;;;;;;3.25;2.65;;;;;;;11.10;86.34;96261.02;1732964;82;21089;-75
2022/09/06 03:58:23;;;;;;;5.60;3.17;;;;;;;11.18;85.78;96261.81;1733292;82;20986;-75
2022/09/06 04:01:04;;;;;;;4.90;3.45;;;;;;;11.27;85.89;96260.41;1733084;83;21021;-74
2022/09/06 04:03:32;;;;;;;5.33;3.45;;;;;;;11.36;85.97;96258.09;1714347;83;21058;-75
2022/09/06 04:05:59;;;;;;;6.08;3.17;;;;;;;11.35;85.48;96257.69;1733004;83;21062;-75
2022/09/06 04:08:26;;;;;;;6.28;3.10;;;;;;;11.25;85.33;96253.81;1732948;83;20979;-75
2022/09/06 04:10:55;;;;;;;3.50;3.20;;;;;;;11.34;85.96;96259.45;1733157;83;21531;-74
2022/09/06 04:13:23;;;;;;;3.42;3.10;;;;;;;11.44;85.85;96257.14;1733105;82;21042;-75
2022/09/06 04:15:51;;;;;;;7.78;3.10;;;;;;;11.51;85.58;96250.45;1732835;83;21567;-74
2022/09/06 04:18:19;;;;;;;6.42;3.15;;;;;;;11.59;85.56;96253.86;1733067;83;21002;-74
2022/09/06 04:20:53;;;;;;;5.17;3.00;;;;;;;11.69;85.36;96248.89;1733162;82;21029;-75
2022/09/06 04:23:20;;;;;;;3.70;3.05;;;;;;;11.76;84.80;96247.06;1714624;84;21023;-75
2022/09/06 04:25:53;;;;;;;3.83;3.00;;;;;;;11.80;85.40;96243.50;1732675;83;21097;-74
2022/09/06 04:28:20;;;;;;;;;;;;;;;11.89;85.36;96244.70;1717437;84;21066;-74
2022/09/06 04:30:57;;;;;;;5.97;3.10;;;;;;;12.04;85.25;96246.27;1714445;83;20386;-75
2022/09/06 04:33:25;;;;;;;3.62;3.20;;;;;;;12.11;84.98;96245.30;1733174;82;21014;-74
2022/09/06 04:35:53;;;;;;;6.67;3.50;;;;;;;12.22;84.90;96238.09;1733206;82;21488;-75
2022/09/06 04:38:20;;;;;;;7.20;3.12;;;;;;;12.30;84.10;96237.98;1733045;83;20983;-75
2022/09/06 04:40:46;;;;;;;4.17;3.00;;;;;;;12.27;83.83;96236.68;1732886;82;21037;-75
2022/09/06 04:43:13;;;;;;;4.35;3.20;;;;;;;12.31;84.21;96228.67;1733101;83;21030;-75
2022/09/06 04:45:41;;;;;;;7.40;3.35;;;;;;;12.38;84.11;96232.57;1732938;82;21061;-74
2022/09/06 04:48:08;;;;;;;4.25;2.87;;;;;;;12.37;83.41;96226.83;1733070;82;21017;-74
2022/09/06 04:50:36;;;;;;;7.67;3.25;;;;;;;12.26;83.59;96222.58;1733079;82;21464;-69
2022/09/06 04:53:06;;;;;;;3.40;3.10;;;;;;;12.31;84.22;96219.87;1733139;83;21102;-71
2022/09/06 04:55:34;;;;;;;10.78;4.05;;;;;;;12.32;83.99;96225.16;1714297;84;21101;-71
2022/09/06 04:58:01;;;;;;;4.15;3.75;;;;;;;12.34;83.84;96231.27;1733056;83;21022;-71
2022/09/06 05:00:30;;;;;;;4.47;3.40;;;;;;;12.30;83.78;96240.62;1732900;82;21054;-82
2022/09/06 05:02:57;;;;;;;3.85;2.92;;;;;;;12.27;83.86;96239.33;1700025;84;21531;-74
2022/09/06 05:05:24;;;;;;;3.47;2.80;;;;;;;12.27;83.73;96248.58;1731354;83;21142;-72
2022/09/06 05:07:55;;;;;;;2.60;2.40;;;;;;;12.37;84.25;96251.52;1733882;83;21112;-72
2022/09/06 05:10:23;;;;;;;6.90;4.60;;;;;;;12.40;83.56;96249.27;1706218;84;21031;-68
2022/09/06 05:12:52;;;;;;;7.40;6.05;;;;;;;12.44;84.53;96243.05;1705717;84;21098;-70
2022/09/06 05:15:21;;;;;;;7.35;5.28;;;;;;;12.45;84.49;96244.81;1706465;84;21113;-75
2022/09/06 05:17:47;;;;;;;4.85;3.95;;;;;;;12.54;84.85;96236.25;1736238;82;21065;-74
2022/09/06 05:20:15;;;;;;;4.80;2.90;;;;;;;12.68;84.68;96243.98;1706461;83;21050;-70
2022/09/06 05:22:42;;;;;;;3.62;3.27;;;;;;;12.80;84.36;96237.63;1706229;83;21039;-73
2022/09/06 05:25:10;;;;;;;5.00;2.85;;;;;;;12.89;83.78;96236.58;1737237;83;21515;-77
2022/09/06 05:27:37;;;;;;;3.92;2.70;;;;;;;13.04;84.07;96238.09;1706482;83;20995;-74
2022/09/06 05:30:05;;;;;;;6.37;2.92;;;;;;;13.17;83.97;96233.84;1737185;83;21030;-74
2022/09/06 05:32:31;;;;;;;3.40;2.72;;;;;;;13.30;83.58;96235.84;1703226;83;21055;-71
2022/09/06 05:34:57;;;;;;;4.80;2.35;;;;;;;13.42;83.54;96233.42;1723229;83;21047;-70
2022/09/06 05:37:24;;;;;;;3.40;2.52;;;;;;;13.53;82.78;96238.50;1723840;82;21007;-70
2022/09/06 05:39:51;;;;;;;4.40;2.40;;;;;;;13.60;82.72;96235.70;1723121;83;21109;-71
2022/09/06 05:42:18;;;;;;;3.60;2.85;;;;;;;13.63;81.70;96234.76;1722947;83;21019;-71
2022/09/06 05:44:45;;;;;;;6.65;2.80;;;;;;;13.59;80.69;96233.09;1723898;83;21086;-71
2022/09/06 05:47:12;;;;;;;4.78;2.58;;;;;;;13.55;80.64;96232.27;1723723;82;21560;-78
2022/09/06 05:49:39;;;;;;;5.03;2.98;;;;;;;13.56;81.09;96235.36;1723097;83;21034;-74
2022/09/06 05:52:05;;;;;;;6.62;2.75;;;;;;;13.62;81.07;96235.68;1723461;83;21552;-71
2022/09/06 05:54:32;;;;;;;4.17;3.20;;;;;;;13.68;81.14;96234.22;1723481;83;21146;-73
2022/09/06 05:56:58;;;;;;;4.97;3.37;;;;;;;13.69;80.06;96235.98;1724467;83;21493;-78
2022/09/06 05:59:25;;;;;;;4.25;2.98;;;;;;;13.71;80.82;96230.63;1723978;83;21039;-76
2022/09/06 06:01:53;;;;;;;5.47;3.37;;;;;;;13.82;80.43;96232.16;1723229;83;21050;-77
2022/09/06 06:04:21;;;;;;;5.62;3.50;;;;;;;13.84;80.64;96231.68;1723300;83;21062;-76
2022/09/06 06:06:48;;;;;;;5.15;3.22;;;;;;;13.89;81.24;96226.73;1723587;83;21029;-77
2022/09/06 06:09:16;;;;;;;4.15;2.95;;;;;;;13.92;81.12;96234.17;1723116;83;21146;-77
2022/09/06 06:11:43;;;;;;;4.85;3.00;;;;;;;14.04;81.01;96225.08;1723093;83;21113;-75
2022/09/06 06:14:10;;;;;;;3.10;2.70;;;;;;;14.20;81.21;96230.91;1723203;83;21118;-79
2022/09/06 06:16:37;;;;;;;3.80;2.45;;;;;;;14.31;80.92;96225.34;1722806;83;21062;-77
2022/09/06 06:19:04;;;;;;;7.22;2.90;;;;;;;14.46;80.70;96231.19;1724510;83;21500;-77
2022/09/06 06:21:33;;;;;;;6.95;2.58;;;;;;;14.58;80.72;96230.50;1724455;83;21018;-78
2022/09/06 06:24:02;;;;;;;3.37;2.10;;;;;;;14.76;80.97;96223.40;1724271;83;20999;-77
2022/09/06 06:26:34;;;;;;;3.17;2.33;;;;;;;15.13;78.19;96225.98;1724357;83;21026;-76
2022/09/06 06:29:01;;;;;;;8.23;2.20;;;;;;;15.13;78.19;96225.98;1724354;83;21034;-76
2022/09/06 06:31:30;;;;;;;3.42;2.17;;;;;;;15.34;78.35;96222.34;1724416;83;21023;-76
2022/09/06 06:33:58;;;;;;;3.70;2.55;;;;;;;15.50;76.53;96221.48;1724471;83;20991;-76
2022/09/06 06:36:29;;;;;;;4.65;2.60;;;;;;;15.54;76.23;96214.67;1724362;82;20987;-75
2022/09/06 06:38:56;;;;;;;3.12;2.20;;;;;;;15.70;76.55;96220.92;1724498;83;21023;-76
2022/09/06 06:41:25;;;;;;;2.45;2.08;;;;;;;15.82;75.00;96215.25;1724390;83;21017;-77
2022/09/06 06:43:54;;;;;;;3.08;2.08;;;;;;;15.95;73.92;96218.41;1724259;82;21030;-75
2022/09/06 06:46:25;;;;;;;3.15;2.50;;;;;;;16.01;73.24;96210.27;1724247;83;21023;-78
2022/09/06 06:48:53;;;;;;;2.70;2.20;;;;;;;16.03;72.03;96204.87;1724015;83;21090;-76
2022/09/06 06:51:24;;;;;;;2.72;2.33;;;;;;;16.08;71.05;96207.84;1723386;83;21026;-78
2022/09/06 06:53:51;;;;;;;4.70;2.75;;;;;;;16.13;72.04;96205.91;1723356;83;21058;-76
2022/09/06 06:56:28;;;;;;;2.65;2.27;;;;;;;16.21;71.06;96210.99;1723816;83;21133;-76
2022/09/06 06:58:58;;;;;;;3.27;2.50;;;;;;;16.24;71.70;96217.55;1723634;83;21035;-79
2022/09/06 07:01:28;;;;;;;3.02;2.10;;;;;;;16.39;72.40;96209.54;1723193;83;21771;-78
2022/09/06 07:03:55;;;;;;;2.72;2.35;;;;;;;16.57;72.52;96211.61;1723446;83;21042;-75
2022/09/06 07:06:23;;;;;;;2.80;2.30;;;;;;;16.78;72.34;96212.75;1723139;83;21152;-75
2022/09/06 07:08:49;;;;;;;4.80;2.25;;;;;;;17.03;71.34;96210.58;1724005;82;20996;-75
2022/09/06 07:11:18;;;;;;;2.50;2.30;;;;;;;17.23;71.06;96215.22;1723241;83;21754;-74
2022/09/06 07:13:45;;;;;;;4.05;2.40;;;;;;;17.44;70.76;96219.81;1724542;82;21015;-74
2022/09/06 07:16:22;;;;;;;4.75;2.45;;;;;;;17.65;70.58;96214.16;1723163;83;21027;-75
2022/09/06 07:18:51;;;;;;;3.87;2.30;;;;;;;17.80;70.62;96218.56;1722717;83;21595;-74
2022/09/06 07:21:25;;;;;;;3.85;2.33;;;;;;;17.91;69.50;96217.69;1722957;82;21078;-74
2022/09/06 07:23:50;;;;;;;4.45;2.50;;;;;;;17.97;68.83;96209.90;1723442;83;21015;-76
2022/09/06 07:26:19;;;;;;;3.22;2.42;;;;;;;18.01;69.13;96211.53;1723413;83;21118;-69
2022/09/06 07:28:46;;;;;;;2.40;2.20;;;;;;;18.08;68.97;96206.37;1723170;83;21113;-69
2022/09/06 07:31:13;;;;;;;4.83;2.50;;;;;;;18.14;68.35;96211.47;1723583;82;21094;-70
2022/09/06 07:33:40;;;;;;;2.92;2.60;;;;;;;18.15;68.38;96211.42;1723859;82;21035;-73
2022/09/06 07:36:08;;;;;;;3.17;2.58;;;;;;;18.15;68.02;96211.89;1723222;82;21115;-72
2022/09/06 07:38:35;;;;;;;2.92;2.52;;;;;;;18.15;67.63;96216.77;1722828;82;21041;-72
2022/09/06 07:41:06;;;;;;;3.77;2.58;;;;;;;18.17;67.52;96220.72;1723064;83;21054;-72
2022/09/06 07:43:34;;;;;;;3.75;2.37;;;;;;;18.26;68.21;96222.16;1723762;83;21053;-69
2022/09/06 07:46:09;;;;;;;2.92;2.60;;;;;;;18.33;68.14;96227.19;1723696;83;20995;-71
2022/09/06 07:48:39;;;;;;;3.58;3.08;;;;;;;18.38;68.65;96220.34;1722476;83;21504;-79
2022/09/06 07:51:18;;;;;;;3.72;2.67;;;;;;;18.51;68.91;96220.72;1724271;83;21062;-73
2022/09/06 07:53:51;;;;;;;3.60;2.60;;;;;;;18.61;68.30;96222.09;1724308;83;21038;-75
2022/09/06 07:56:21;;;;;;;3.47;2.50;;;;;;;18.72;68.06;96213.63;1724024;82;21074;-74
2022/09/06 07:58:50;;;;;;;4.58;2.77;;;;;;;18.92;67.91;96215.05;1722960;83;21010;-71
2022/09/06 08:01:36;;;;;;;2.98;2.77;;;;;;;19.08;66.55;96209.95;1723432;83;21556;-73
2022/09/06 08:04:07;;;;;;;3.02;2.50;;;;;;;19.13;65.74;96215.11;1723453;83;21109;-69
2022/09/06 08:06:38;;;;;;;3.50;2.65;;;;;;;19.14;66.31;96214.16;1723300;83;21090;-71
2022/09/06 08:09:07;;;;;;;4.05;2.52;;;;;;;19.22;65.54;96217.37;1724144;83;21564;-72
2022/09/06 08:11:36;;;;;;;5.53;2.70;;;;;;;19.32;65.66;96219.19;1723470;83;21502;-72
2022/09/06 08:14:06;;;;;;;4.03;2.50;;;;;;;19.56;65.55;96214.58;1723212;83;21058;-72
2022/09/06 08:16:35;;;;;;;4.83;2.20;;;;;;;19.70;61.95;96209.97;1722910;83;21054;-71
2022/09/06 08:19:07;;;;;;;4.87;2.27;;;;;;;19.73;56.05;96210.72;1723048;83;21066;-70
2022/09/06 08:21:34;;;;;;;4.45;2.05;;;;;;;19.82;58.42;96210.77;1723364;83;21611;-71
2022/09/06 08:24:08;;;;;;;2.33;2.10;;;;;;;19.85;57.23;96207.46;1723588;82;21096;-74
2022/09/06 08:26:42;;;;;;;3.65;2.10;;;;;;;19.91;57.73;96200.98;1723715;83;21026;-72
2022/09/06 08:29:07;;;;;;;2.27;2.00;;;;;;;20.02;58.52;96199.14;1722644;83;21541;-70
2022/09/06 08:31:37;;;;;;;2.55;1.77;;;;;;;20.12;54.22;96196.43;1719818;82;21102;-70
2022/09/06 08:34:04;;;;;;;1.90;1.60;;;;;;;20.13;52.33;96198.16;1720586;83;21045;-72
2022/09/06 08:36:32;;;;;;;1.60;1.50;;;;;;;20.24;55.15;96196.33;1725744;83;21031;-69
2022/09/06 08:39:02;;;;;;;2.87;1.92;;;;;;;20.34;52.17;96196.77;1726347;83;21023;-75
2022/09/06 08:42:00;;;;;;;2.90;2.30;;;;;;;20.43;54.29;96198.52;1727446;83;21023;-72
2022/09/06 08:44:35;;;;;;;2.20;1.90;;;;;;;20.49;53.82;96197.37;1725677;83;21066;-69
2022/09/06 08:47:11;;;;;;;2.87;2.27;;;;;;;20.62;53.95;96194.52;1726230;83;21111;-69
2022/09/06 08:49:45;;;;;;;2.17;1.98;;;;;;;20.74;53.50;96193.92;1726377;82;21034;-69
2022/09/06 08:52:46;;;;;;;7.20;2.25;;;;;;;20.82;51.61;96197.56;1725807;83;21540;-70
2022/09/06 08:55:24;;;;;;;2.40;1.90;;;;;;;20.89;53.17;96186.94;1725965;83;21053;-69
2022/09/06 08:58:14;;;;;;;2.52;2.08;;;;;;;20.82;51.64;96184.64;1726852;83;21019;-69
2022/09/06 09:00:52;;;;;;;3.00;2.40;;;;;;;20.93;54.02;96189.84;1726648;82;21563;-70
2022/09/06 09:03:22;;;;;;;3.27;2.05;;;;;;;21.04;53.59;96185.30;1726306;82;21472;-68
2022/09/06 09:05:58;;;;;;;4.30;1.95;;;;;;;21.41;53.64;96185.25;1725096;83;21194;-74
2022/09/06 09:08:45;;;;;;;6.87;2.12;;;;;;;21.66;51.86;96180.31;1724501;83;21390;-73
2022/09/06 09:11:18;;;;;;;5.35;2.20;;;;;;;21.83;50.70;96180.77;1725970;82;21046;-72
2022/09/06 09:14:08;;;;;;;4.08;2.20;;;;;;;21.89;51.50;96184.93;1726648;83;21481;-72
2022/09/06 09:16:35;;;;;;;4.90;2.30;;;;;;;21.96;51.14;96178.28;1726593;83;21022;-72
2022/09/06 09:19:04;;;;;;;4.92;2.40;;;;;;;21.99;50.14;96178.11;1726322;83;21090;-72
2022/09/06 09:21:38;;;;;;;4.92;2.25;;;;;;;22.02;48.91;96180.62;1726002;82;21113;-72
2022/09/06 09:24:09;;;;;;;2.27;2.08;;;;;;;22.05;49.75;96177.79;1727221;83;21019;-73
2022/09/06 09:27:00;;;;;;;4.80;2.20;;;;;;;22.00;49.18;96179.86;1727121;83;21022;-73
2022/09/06 09:29:27;;;;;;;9.45;2.25;;;;;;;22.00;48.88;96175.83;1726931;83;21051;-72
2022/09/06 09:31:55;;;;;;;9.90;2.90;;;;;;;21.97;49.33;96174.18;1726325;82;21046;-73
2022/09/06 09:34:35;;;;;;;13.15;3.30;;;;;;;21.92;48.96;96178.05;1721433;83;21208;-72
2022/09/06 09:37:25;;;;;;;4.95;2.55;;;;;;;21.85;49.84;96176.19;1721483;82;21007;-73
2022/09/06 09:39:55;;;;;;;3.17;2.12;;;;;;;21.70;49.50;96177.88;1721629;83;21067;-72
2022/09/06 09:42:30;;;;;;;2.70;2.40;;;;;;;21.53;49.85;96181.44;1720541;83;21599;-72
2022/09/06 09:44:56;;;;;;;3.15;2.22;;;;;;;;;;1721194;83;21106;-72
2022/09/06 09:47:28;;;;;;;2.45;2.02;;;;;;;21.25;51.01;96187.83;1721687;83;20996;-72
2022/09/06 09:49:56;;;;;;;2.22;2.02;;;;;;;21.09;51.12;96185.03;1721088;83;21553;-72
2022/09/06 09:52:31;;;;;;;3.83;2.08;;;;;;;20.98;51.33;96183.39;1721608;83;21015;-72
2022/09/06 09:55:04;;;;;;;3.67;2.30;;;;;;;20.90;51.75;96186.45;1721596;83;21155;-73
2022/09/06 09:57:35;;;;;;;2.67;2.20;;;;;;;20.85;52.01;96181.31;1721873;83;21011;-73
2022/09/06 10:00:07;;;;;;;5.85;2.15;;;;;;;20.83;52.52;96184.54;1718868;83;21525;-72
2022/09/06 10:02:37;;;;;;;4.58;2.30;;;;;;;20.84;53.05;96180.03;1721939;83;21019;-73
2022/09/06 10:05:16;;;;;;;3.52;2.12;;;;;;;20.83;53.66;96172.95;1721798;83;21062;-73
2022/09/06 10:07:53;;;;;;;2.30;2.10;;;;;;;20.80;53.79;96183.84;1721809;83;21068;-73
2022/09/06 10:10:26;;;;;;;2.52;2.33;;;;;;;20.78;52.90;96181.22;1721347;83;20999;-73
2022/09/06 10:13:25;;;;;;;4.42;2.58;;;;;;;20.82;53.81;96188.66;1721606;83;21006;-73
2022/09/06 10:15:53;;;;;;;4.08;1.87;;;;;;;20.85;53.59;96179.97;1721925;83;21568;-73
2022/09/06 10:18:39;;;;;;;5.80;2.17;;;;;;;20.85;53.87;96176.43;1721758;83;20999;-73
2022/09/06 10:21:17;;;;;;;2.83;1.92;;;;;;;20.84;51.13;96179.59;1721751;83;21114;-73
2022/09/06 10:24:09;;;;;;;2.58;2.20;;;;;;;20.99;50.54;96179.74;1722053;83;21000;-72
2022/09/06 10:26:44;;;;;;;13.43;2.42;;;;;;;21.32;51.03;96175.36;1721217;83;21094;-73
2022/09/06 10:29:13;;;;;;;3.00;2.15;;;;;;;21.60;51.06;96182.86;1721737;82;21010;-72
2022/09/06 10:31:57;;;;;;;2.20;1.95;;;;;;;22.02;50.07;96177.94;1721814;83;21030;-73
2022/09/06 10:34:43;;;;;;;1.77;1.65;;;;;;;22.09;47.28;96178.47;1691729;83;21517;-73
2022/09/06 10:37:40;;;;;;;2.77;2.45;;;;;;;22.00;46.05;96176.69;1705962;83;21050;-73
2022/09/06 10:40:14;;;;;;;3.77;2.42;;;;;;;22.11;49.57;96178.78;1727428;82;21492;-73
2022/09/06 10:42:54;;;;;;;3.27;2.85;;;;;;;22.19;50.54;96182.39;1726024;83;21066;-73
2022/09/06 10:45:43;;;;;;;3.20;2.90;;;;;;;22.21;49.97;96183.21;1727252;82;21042;-73
2022/09/06 10:48:31;;;;;;;4.95;3.20;;;;;;;22.13;49.51;96184.95;1727060;83;21537;-73
2022/09/06 10:51:19;;;;;;;3.25;2.55;;;;;;;22.16;50.22;96182.56;1727332;83;21026;-73
2022/09/06 10:54:01;;;;;;;2.85;2.40;;;;;;;22.20;50.34;96174.29;1727009;83;21540;-73
2022/09/06 10:56:55;;;;;;;2.92;2.50;;;;;;;22.10;48.15;96175.72;1727371;83;21057;-72
2022/09/06 10:59:34;;;;;;;2.87;2.50;;;;;;;22.11;49.20;96168.52;1727224;83;21066;-73
2022/09/06 11:02:41;;;;;;;2.37;2.10;;;;;;;22.22;49.87;96171.02;1727489;83;21078;-73
2022/09/06 11:05:11;;;;;;;3.25;2.05;;;;;;;22.34;48.53;96168.13;1727295;82;21022;-73
2022/09/06 11:07:44;;;;;;;2.30;2.10;;;;;;;22.43;50.12;96172.13;1727313;83;21027;-73
2022/09/06 11:10:24;;;;;;;3.67;2.27;;;;;;;22.50;48.27;96164.08;1727192;83;21050;-73
2022/09/06 11:13:11;;;;;;;2.40;2.20;;;;;;;22.60;49.71;96168.47;1727362;83;21082;-72
2022/09/06 11:16:01;;;;;;;2.75;2.20;;;;;;;22.79;49.77;96162.91;1727285;82;21042;-73
2022/09/06 11:18:55;;;;;;;2.52;2.25;;;;;;;22.96;47.89;96163.28;1726474;83;21090;-73
2022/09/06 11:21:54;;;;;;;3.83;2.10;;;;;;;23.14;46.99;96160.02;1727307;82;21496;-73
2022/09/06 11:25:01;;;;;;;2.50;2.30;;;;;;;23.29;46.62;96159.95;1727088;82;21019;-73
2022/09/06 11:27:35;;;;;;;3.95;2.35;;;;;;;23.25;45.62;96155.70;1727046;83;21018;-73
2022/09/06 11:30:04;;;;;;;2.17;2.00;;;;;;;23.13;46.59;96147.48;1727285;83;21102;-73
2022/09/06 11:32:48;;;;;;;2.85;2.30;;;;;;;23.03;46.84;96166.90;1727059;83;21071;-73
2022/09/06 11:35:31;;;;;;;2.47;2.10;;;;;;;23.01;46.87;96157.18;1722274;83;21552;-73
2022/09/06 11:38:21;;;;;;;1.98;1.87;;;;;;;23.00;48.31;96153.59;1721556;83;21150;-73
2022/09/06 11:40:58;;;;;;;2.47;2.27;;;;;;;22.97;47.77;96157.82;1721647;83;21553;-73
2022/09/06 11:43:48;;;;;;;3.00;2.20;;;;;;;22.90;47.31;96149.69;1721517;83;21047;-73
2022/09/06 11:46:41;;;;;;;3.37;2.27;;;;;;;22.99;47.62;96149.67;1721879;83;21023;-73
2022/09/06 11:49:28;;;;;;;3.72;2.20;;;;;;;23.40;47.59;96139.58;1713902;83;21074;-72
2022/09/06 11:51:55;;;;;;;5.25;2.27;;;;;;;24.35;46.28;96135.00;1720784;83;21011;-73
2022/09/06 11:54:39;;;;;;;1.70;1.60;;;;;;;25.30;44.49;96122.44;1721933;83;21046;-73
2022/09/06 11:57:21;;;;;;;2.25;1.92;;;;;;;25.98;42.28;96118.13;1721650;83;21023;-73
2022/09/06 11:59:59;;;;;;;2.87;1.90;;;;;;;26.74;41.05;96115.73;1721886;83;21071;-73